Time;durP1;ratioP1;P1;durP2;ratioP2;P2;SDS_P1;SDS_P2;PMS_P1;PMS_P2;Temp;Humidity;BMP_temperature;BMP_pressure;BME280_temperature;BME280_humidity;BME280_pressure;Samples;Min_cycle;Max_cycle;Signal;HPM_P1;HPM_P2
2024/02/19 00:01:31;;;;;;;111.60;50.90;;;;;;;-128.00;-1.00;-1.00;102447;1260;1003404;-85
2024/02/19 00:03:58;;;;;;;131.90;62.60;;;;;;;-128.00;-1.00;-1.00;102458;1261;1058631;-79
2024/02/19 00:06:24;;;;;;;123.70;55.90;;;;;;;-128.00;-1.00;-1.00;102240;1261;1003713;-85
2024/02/19 00:08:51;;;;;;;122.20;58.30;;;;;;;-128.00;-1.00;-1.00;102379;1261;1003362;-86
2024/02/19 00:11:17;;;;;;;122.20;56.20;;;;;;;-128.00;-1.00;-1.00;102405;1266;1004641;-83
2024/02/19 00:13:44;;;;;;;107.30;52.00;;;;;;;-128.00;-1.00;-1.00;102452;1260;1005155;-79
2024/02/19 00:16:10;;;;;;;113.20;51.90;;;;;;;-128.00;-1.00;-1.00;102277;1266;1003609;-85
2024/02/19 00:18:37;;;;;;;107.40;50.90;;;;;;;-128.00;-1.00;-1.00;102342;1261;1004944;-86
2024/02/19 00:21:03;;;;;;;115.30;55.60;;;;;;;-128.00;-1.00;-1.00;102451;1261;1005332;-85
2024/02/19 00:23:33;;;;;;;108.60;51.70;;;;;;;-128.00;-1.00;-1.00;102460;1267;1003771;-79
2024/02/19 00:26:00;;;;;;;116.00;54.00;;;;;;;-128.00;-1.00;-1.00;102935;1261;1060173;-88
2024/02/19 00:28:27;;;;;;;125.00;55.70;;;;;;;-128.00;-1.00;-1.00;103581;1260;1005200;-80
2024/02/19 00:30:54;;;;;;;100.70;50.70;;;;;;;-128.00;-1.00;-1.00;102140;1261;1004573;-82
2024/02/19 00:33:21;;;;;;;103.00;48.40;;;;;;;-128.00;-1.00;-1.00;103327;1260;1004166;-85
2024/02/19 00:35:48;;;;;;;113.90;52.50;;;;;;;-128.00;-1.00;-1.00;102971;1261;1004342;-85
2024/02/19 00:38:14;;;;;;;103.30;50.00;;;;;;;-128.00;-1.00;-1.00;103248;1260;1005017;-79
2024/02/19 00:40:41;;;;;;;106.20;51.70;;;;;;;-128.00;-1.00;-1.00;102588;1260;1007248;-79
2024/02/19 00:43:07;;;;;;;104.50;49.00;;;;;;;-128.00;-1.00;-1.00;103166;1260;1004484;-85
2024/02/19 00:45:34;;;;;;;101.70;46.70;;;;;;;-128.00;-1.00;-1.00;103596;1260;1004775;-86
2024/02/19 00:48:00;;;;;;;101.10;48.20;;;;;;;-128.00;-1.00;-1.00;103109;1260;1004507;-82
2024/02/19 00:50:27;;;;;;;100.90;47.50;;;;;;;-128.00;-1.00;-1.00;103111;1260;1005192;-80
2024/02/19 00:52:53;;;;;;;100.40;50.40;;;;;;;-128.00;-1.00;-1.00;103223;1260;1004768;-80
2024/02/19 00:55:21;;;;;;;103.80;49.10;;;;;;;-128.00;-1.00;-1.00;102958;1261;1004580;-87
2024/02/19 00:57:47;;;;;;;109.50;52.30;;;;;;;-128.00;-1.00;-1.00;103410;1260;1004860;-87
2024/02/19 01:00:16;;;;;;;110.90;49.70;;;;;;;-128.00;-1.00;-1.00;103670;1264;1004212;-81
2024/02/19 01:02:42;;;;;;;105.00;50.90;;;;;;;-128.00;-1.00;-1.00;102617;1268;1004479;-88
2024/02/19 01:05:09;;;;;;;123.00;57.10;;;;;;;-128.00;-1.00;-1.00;102407;1260;1004706;-82
2024/02/19 01:07:35;;;;;;;123.40;55.20;;;;;;;-128.00;-1.00;-1.00;102353;1261;1004477;-86
2024/02/19 01:10:02;;;;;;;103.80;48.40;;;;;;;-128.00;-1.00;-1.00;102470;1260;1003893;-80
2024/02/19 01:12:28;;;;;;;98.30;46.60;;;;;;;-128.00;-1.00;-1.00;102342;1261;1004785;-80
2024/02/19 01:14:55;;;;;;;90.90;43.70;;;;;;;-128.00;-1.00;-1.00;102396;1260;1004987;-86
2024/02/19 01:17:22;;;;;;;81.30;39.00;;;;;;;-128.00;-1.00;-1.00;102353;1266;1004144;-80
2024/02/19 01:19:49;;;;;;;77.40;38.80;;;;;;;-128.00;-1.00;-1.00;102481;1260;1004784;-87
2024/02/19 01:22:15;;;;;;;87.80;41.80;;;;;;;-128.00;-1.00;-1.00;102454;1261;1004707;-81
2024/02/19 01:24:42;;;;;;;109.50;42.60;;;;;;;-128.00;-1.00;-1.00;102359;1260;1004677;-86
2024/02/19 01:27:10;;;;;;;80.80;40.20;;;;;;;-128.00;-1.00;-1.00;102343;1264;1003795;-79
2024/02/19 01:29:36;;;;;;;92.40;42.20;;;;;;;-128.00;-1.00;-1.00;104322;1260;1003526;-86
2024/02/19 01:32:04;;;;;;;95.40;41.90;;;;;;;-128.00;-1.00;-1.00;102393;1264;1003991;-80
2024/02/19 01:34:30;;;;;;;94.50;40.00;;;;;;;-128.00;-1.00;-1.00;104929;1260;1005068;-87
2024/02/19 01:36:57;;;;;;;94.30;42.20;;;;;;;-128.00;-1.00;-1.00;102411;1261;1003722;-86
2024/02/19 01:39:24;;;;;;;100.10;45.80;;;;;;;-128.00;-1.00;-1.00;102430;1261;1005097;-80
2024/02/19 01:41:51;;;;;;;96.90;45.60;;;;;;;-128.00;-1.00;-1.00;102224;1261;1004081;-86
2024/02/19 01:44:17;;;;;;;89.60;43.40;;;;;;;-128.00;-1.00;-1.00;102346;1263;1003809;-79
2024/02/19 01:46:44;;;;;;;85.70;42.70;;;;;;;-128.00;-1.00;-1.00;102361;1266;1003832;-86
2024/02/19 01:49:10;;;;;;;85.30;42.30;;;;;;;-128.00;-1.00;-1.00;102307;1260;1004919;-80
2024/02/19 01:51:37;;;;;;;97.70;46.40;;;;;;;-128.00;-1.00;-1.00;102342;1260;1004532;-79
2024/02/19 01:54:04;;;;;;;90.10;41.60;;;;;;;-128.00;-1.00;-1.00;102274;1260;1005002;-80
2024/02/19 01:56:30;;;;;;;102.40;45.70;;;;;;;-128.00;-1.00;-1.00;102383;1261;1003852;-86
2024/02/19 01:58:58;;;;;;;89.50;43.20;;;;;;;-128.00;-1.00;-1.00;102314;1260;1004433;-86
2024/02/19 02:01:25;;;;;;;80.80;40.00;;;;;;;-128.00;-1.00;-1.00;102510;1260;1003858;-86
2024/02/19 02:03:51;;;;;;;78.90;38.70;;;;;;;-128.00;-1.00;-1.00;102290;1261;1006741;-80
2024/02/19 02:06:18;;;;;;;82.90;41.10;;;;;;;-128.00;-1.00;-1.00;102331;1261;1006225;-86
2024/02/19 02:08:45;;;;;;;93.20;43.20;;;;;;;-128.00;-1.00;-1.00;102416;1260;1004755;-80
2024/02/19 02:11:12;;;;;;;88.90;42.40;;;;;;;-128.00;-1.00;-1.00;102320;1265;1004373;-80
2024/02/19 02:13:38;;;;;;;86.00;41.70;;;;;;;-128.00;-1.00;-1.00;102493;1267;1004024;-86
2024/02/19 02:16:06;;;;;;;82.90;42.70;;;;;;;-128.00;-1.00;-1.00;102404;1261;1005141;-80
2024/02/19 02:18:33;;;;;;;93.20;44.20;;;;;;;-128.00;-1.00;-1.00;102841;1260;1004274;-79
2024/02/19 02:21:00;;;;;;;95.50;46.50;;;;;;;-128.00;-1.00;-1.00;102391;1261;1003587;-79
2024/02/19 02:23:26;;;;;;;95.40;45.50;;;;;;;-128.00;-1.00;-1.00;102413;1261;1005329;-80
2024/02/19 02:25:53;;;;;;;102.50;44.00;;;;;;;-128.00;-1.00;-1.00;102346;1263;1004817;-86
2024/02/19 02:28:22;;;;;;;103.10;48.30;;;;;;;-128.00;-1.00;-1.00;103821;1260;1003826;-80
2024/02/19 02:30:49;;;;;;;103.30;47.30;;;;;;;-128.00;-1.00;-1.00;105138;1260;1059090;-80
2024/02/19 02:33:16;;;;;;;94.30;42.50;;;;;;;-128.00;-1.00;-1.00;102684;1261;1004689;-80
2024/02/19 02:35:43;;;;;;;87.80;42.40;;;;;;;-128.00;-1.00;-1.00;102358;1261;1004262;-87
2024/02/19 02:38:09;;;;;;;89.70;40.10;;;;;;;-128.00;-1.00;-1.00;102394;1264;1004331;-79
2024/02/19 02:40:36;;;;;;;84.70;38.60;;;;;;;-128.00;-1.00;-1.00;102273;1264;1004646;-80
2024/02/19 02:43:05;;;;;;;74.30;36.20;;;;;;;-128.00;-1.00;-1.00;102305;1266;1004004;-86
2024/02/19 02:45:32;;;;;;;84.10;42.60;;;;;;;-128.00;-1.00;-1.00;102397;1260;1047833;-86
2024/02/19 02:47:58;;;;;;;92.20;44.40;;;;;;;-128.00;-1.00;-1.00;102820;1260;1007163;-86
2024/02/19 02:50:25;;;;;;;83.20;40.40;;;;;;;-128.00;-1.00;-1.00;102405;1261;1004993;-80
2024/02/19 02:52:51;;;;;;;84.90;40.80;;;;;;;-128.00;-1.00;-1.00;102323;1260;1005199;-86
2024/02/19 02:55:18;;;;;;;83.40;40.50;;;;;;;-128.00;-1.00;-1.00;102349;1260;1003958;-86
2024/02/19 02:57:44;;;;;;;75.60;37.10;;;;;;;-128.00;-1.00;-1.00;102427;1261;1004260;-80
2024/02/19 03:00:11;;;;;;;63.50;31.20;;;;;;;-128.00;-1.00;-1.00;102368;1261;1005357;-86
2024/02/19 03:02:38;;;;;;;67.10;35.40;;;;;;;-128.00;-1.00;-1.00;102384;1266;1004319;-86
2024/02/19 03:05:04;;;;;;;85.00;36.00;;;;;;;-128.00;-1.00;-1.00;102418;1264;1005049;-86
2024/02/19 03:07:31;;;;;;;74.30;36.50;;;;;;;-128.00;-1.00;-1.00;102371;1260;1004475;-87
2024/02/19 03:09:57;;;;;;;65.90;34.60;;;;;;;-128.00;-1.00;-1.00;102380;1264;1005408;-87
2024/02/19 03:12:24;;;;;;;75.30;34.50;;;;;;;-128.00;-1.00;-1.00;102501;1261;1005797;-85
2024/02/19 03:14:50;;;;;;;66.40;32.50;;;;;;;-128.00;-1.00;-1.00;102432;1262;1005019;-81
2024/02/19 03:17:17;;;;;;;73.90;35.50;;;;;;;-128.00;-1.00;-1.00;102571;1261;1004351;-86
2024/02/19 03:19:46;;;;;;;74.30;36.20;;;;;;;-128.00;-1.00;-1.00;102428;1261;1006477;-86
2024/02/19 03:22:13;;;;;;;75.40;35.20;;;;;;;-128.00;-1.00;-1.00;102363;1262;1047665;-80
2024/02/19 03:24:40;;;;;;;79.10;37.00;;;;;;;-128.00;-1.00;-1.00;102425;1260;1005043;-80
2024/02/19 03:27:06;;;;;;;80.60;37.20;;;;;;;-128.00;-1.00;-1.00;102518;1260;1003942;-80
2024/02/19 03:29:33;;;;;;;73.60;36.30;;;;;;;-128.00;-1.00;-1.00;102609;1261;1007676;-80
2024/02/19 03:31:59;;;;;;;66.70;35.90;;;;;;;-128.00;-1.00;-1.00;102402;1260;1004668;-86
2024/02/19 03:34:26;;;;;;;75.20;35.20;;;;;;;-128.00;-1.00;-1.00;102425;1261;1005566;-86
2024/02/19 03:36:52;;;;;;;40.50;20.30;;;;;;;-128.00;-1.00;-1.00;102388;1260;1003865;-86
2024/02/19 03:39:19;;;;;;;55.30;26.40;;;;;;;-128.00;-1.00;-1.00;102429;1264;1003936;-86
2024/02/19 03:41:45;;;;;;;55.00;26.40;;;;;;;-128.00;-1.00;-1.00;102377;1260;1003685;-87
2024/02/19 03:44:12;;;;;;;52.80;28.40;;;;;;;-128.00;-1.00;-1.00;102374;1264;1004082;-81
2024/02/19 03:46:38;;;;;;;50.20;25.00;;;;;;;-128.00;-1.00;-1.00;102261;1268;1004315;-80
2024/02/19 03:49:05;;;;;;;44.40;22.30;;;;;;;-128.00;-1.00;-1.00;102380;1265;1003869;-86
2024/02/19 03:51:31;;;;;;;43.90;23.60;;;;;;;-128.00;-1.00;-1.00;102360;1260;1004438;-80
2024/02/19 03:53:58;;;;;;;52.30;28.00;;;;;;;-128.00;-1.00;-1.00;103133;1260;1004393;-80
2024/02/19 03:56:25;;;;;;;55.30;28.10;;;;;;;-128.00;-1.00;-1.00;103622;1263;1004479;-86
2024/02/19 03:58:51;;;;;;;64.90;30.60;;;;;;;-128.00;-1.00;-1.00;102995;1260;1005137;-81
2024/02/19 04:01:18;;;;;;;71.90;30.00;;;;;;;-128.00;-1.00;-1.00;104029;1260;1003739;-87
2024/02/19 04:03:44;;;;;;;50.00;28.40;;;;;;;-128.00;-1.00;-1.00;102435;1261;1004900;-81
2024/02/19 04:06:11;;;;;;;56.00;27.30;;;;;;;-128.00;-1.00;-1.00;102355;1266;1003895;-87
2024/02/19 04:08:38;;;;;;;54.60;27.30;;;;;;;-128.00;-1.00;-1.00;102472;1260;1004112;-81
2024/02/19 04:11:05;;;;;;;44.40;22.50;;;;;;;-128.00;-1.00;-1.00;102267;1260;1004798;-80
2024/02/19 04:13:31;;;;;;;44.30;22.70;;;;;;;-128.00;-1.00;-1.00;102477;1260;1003791;-87
2024/02/19 04:15:58;;;;;;;65.50;28.10;;;;;;;-128.00;-1.00;-1.00;102347;1260;1004576;-87
2024/02/19 04:18:24;;;;;;;51.00;26.00;;;;;;;-128.00;-1.00;-1.00;102466;1261;1004459;-87
2024/02/19 04:20:50;;;;;;;52.60;27.70;;;;;;;-128.00;-1.00;-1.00;102443;1264;1005978;-81
2024/02/19 04:23:17;;;;;;;62.50;29.90;;;;;;;-128.00;-1.00;-1.00;102410;1260;1005113;-87
2024/02/19 04:25:44;;;;;;;64.20;29.90;;;;;;;-128.00;-1.00;-1.00;102331;1260;1004661;-80
2024/02/19 04:28:11;;;;;;;60.00;30.90;;;;;;;-128.00;-1.00;-1.00;102361;1261;1003935;-87
2024/02/19 04:30:38;;;;;;;64.10;33.50;;;;;;;-128.00;-1.00;-1.00;102415;1260;1004608;-87
2024/02/19 04:33:04;;;;;;;59.50;28.90;;;;;;;-128.00;-1.00;-1.00;102349;1262;1003584;-80
2024/02/19 04:35:31;;;;;;;35.80;18.00;;;;;;;-128.00;-1.00;-1.00;102350;1261;1004277;-80
2024/02/19 04:37:57;;;;;;;57.50;26.60;;;;;;;-128.00;-1.00;-1.00;102295;1261;1005229;-86
2024/02/19 04:40:24;;;;;;;45.40;22.40;;;;;;;-128.00;-1.00;-1.00;102527;1260;1004857;-86
2024/02/19 04:42:50;;;;;;;30.60;16.80;;;;;;;-128.00;-1.00;-1.00;102512;1260;1004668;-86
2024/02/19 04:45:17;;;;;;;50.80;24.10;;;;;;;-128.00;-1.00;-1.00;102560;1261;1003866;-84
2024/02/19 04:47:43;;;;;;;50.60;28.40;;;;;;;-128.00;-1.00;-1.00;102607;1261;1004905;-80
2024/02/19 04:50:10;;;;;;;41.60;20.60;;;;;;;-128.00;-1.00;-1.00;102531;1261;1005014;-86
2024/02/19 04:52:36;;;;;;;45.40;22.90;;;;;;;-128.00;-1.00;-1.00;102322;1262;1004102;-86
2024/02/19 04:55:03;;;;;;;51.90;26.40;;;;;;;-128.00;-1.00;-1.00;102399;1264;1004427;-80
2024/02/19 04:57:30;;;;;;;47.00;24.40;;;;;;;-128.00;-1.00;-1.00;103126;1260;1004281;-80
2024/02/19 04:59:56;;;;;;;49.80;23.80;;;;;;;-128.00;-1.00;-1.00;102502;1264;1004273;-80
2024/02/19 05:02:23;;;;;;;56.20;28.30;;;;;;;-128.00;-1.00;-1.00;102700;1260;1004843;-87
2024/02/19 05:04:50;;;;;;;51.30;25.60;;;;;;;-128.00;-1.00;-1.00;102418;1260;1004293;-86
2024/02/19 05:07:17;;;;;;;59.20;30.50;;;;;;;-128.00;-1.00;-1.00;102934;1260;1004579;-87
2024/02/19 05:09:43;;;;;;;68.30;29.10;;;;;;;-128.00;-1.00;-1.00;102961;1260;1003586;-81
2024/02/19 05:12:09;;;;;;;72.20;35.50;;;;;;;-128.00;-1.00;-1.00;102426;1263;1005464;-80
2024/02/19 05:14:36;;;;;;;55.70;30.30;;;;;;;-128.00;-1.00;-1.00;102397;1261;1004833;-87
2024/02/19 05:17:03;;;;;;;60.00;29.00;;;;;;;-128.00;-1.00;-1.00;102708;1260;1004711;-80
2024/02/19 05:19:30;;;;;;;62.40;29.00;;;;;;;-128.00;-1.00;-1.00;105126;1260;1004242;-81
2024/02/19 05:21:56;;;;;;;50.50;28.50;;;;;;;-128.00;-1.00;-1.00;104227;1260;1004842;-87
2024/02/19 05:24:23;;;;;;;53.50;24.90;;;;;;;-128.00;-1.00;-1.00;102355;1260;1005407;-81
2024/02/19 05:26:49;;;;;;;40.90;22.10;;;;;;;-128.00;-1.00;-1.00;102414;1265;1004410;-87
2024/02/19 05:29:15;;;;;;;46.90;24.20;;;;;;;-128.00;-1.00;-1.00;103320;1261;1005502;-87
2024/02/19 05:31:42;;;;;;;46.40;24.70;;;;;;;-128.00;-1.00;-1.00;102406;1261;1006094;-80
2024/02/19 05:34:09;;;;;;;57.80;28.60;;;;;;;-128.00;-1.00;-1.00;102135;1262;1004567;-80
2024/02/19 05:36:35;;;;;;;49.10;24.40;;;;;;;-128.00;-1.00;-1.00;102405;1262;1004572;-86
2024/02/19 05:39:02;;;;;;;47.60;24.30;;;;;;;-128.00;-1.00;-1.00;103719;1262;1004299;-80
2024/02/19 05:41:28;;;;;;;52.10;25.50;;;;;;;-128.00;-1.00;-1.00;102429;1265;1003762;-86
2024/02/19 05:43:56;;;;;;;45.50;21.70;;;;;;;-128.00;-1.00;-1.00;102304;1262;1004023;-80
2024/02/19 05:46:22;;;;;;;48.50;24.00;;;;;;;-128.00;-1.00;-1.00;102089;1267;1003824;-86
2024/02/19 05:48:49;;;;;;;43.80;23.40;;;;;;;-128.00;-1.00;-1.00;102291;1261;1003867;-86
2024/02/19 05:51:15;;;;;;;41.10;23.10;;;;;;;-128.00;-1.00;-1.00;102339;1260;1004733;-86
2024/02/19 05:53:42;;;;;;;49.90;26.20;;;;;;;-128.00;-1.00;-1.00;102482;1265;1003939;-86
2024/02/19 05:56:09;;;;;;;49.30;23.70;;;;;;;-128.00;-1.00;-1.00;102573;1261;1004556;-80
2024/02/19 05:58:42;;;;;;;50.80;26.00;;;;;;;-128.00;-1.00;-1.00;102637;1260;1005023;-79
2024/02/19 06:01:08;;;;;;;53.90;25.50;;;;;;;-128.00;-1.00;-1.00;102439;1265;1048749;-80
2024/02/19 06:03:35;;;;;;;45.40;23.90;;;;;;;-128.00;-1.00;-1.00;102433;1260;1005365;-86
2024/02/19 06:06:03;;;;;;;46.90;24.70;;;;;;;-128.00;-1.00;-1.00;102532;1260;1003704;-81
2024/02/19 06:08:29;;;;;;;44.30;25.20;;;;;;;-128.00;-1.00;-1.00;102319;1268;1004160;-86
2024/02/19 06:10:56;;;;;;;45.30;24.20;;;;;;;-128.00;-1.00;-1.00;102399;1262;1004875;-86
2024/02/19 06:13:22;;;;;;;48.60;23.70;;;;;;;-128.00;-1.00;-1.00;104205;1262;1004289;-81
2024/02/19 06:15:49;;;;;;;46.50;21.90;;;;;;;-128.00;-1.00;-1.00;105045;1261;1004717;-80
2024/02/19 06:18:16;;;;;;;40.80;23.00;;;;;;;-128.00;-1.00;-1.00;104992;1261;1005249;-87
2024/02/19 06:20:42;;;;;;;45.50;21.40;;;;;;;-128.00;-1.00;-1.00;104894;1262;1004414;-80
2024/02/19 06:23:09;;;;;;;45.60;22.60;;;;;;;-128.00;-1.00;-1.00;103753;1262;1005224;-80
2024/02/19 06:25:35;;;;;;;51.20;27.00;;;;;;;-128.00;-1.00;-1.00;102429;1262;1003543;-87
2024/02/19 06:28:02;;;;;;;57.90;28.10;;;;;;;-128.00;-1.00;-1.00;102863;1262;1004320;-80
2024/02/19 06:30:28;;;;;;;56.90;26.90;;;;;;;-128.00;-1.00;-1.00;102377;1262;1004565;-87
2024/02/19 06:32:56;;;;;;;58.00;29.80;;;;;;;-128.00;-1.00;-1.00;102903;1261;1004786;-81
2024/02/19 06:35:22;;;;;;;65.50;31.60;;;;;;;-128.00;-1.00;-1.00;102402;1262;1004965;-87
2024/02/19 06:37:50;;;;;;;56.00;28.70;;;;;;;-128.00;-1.00;-1.00;103654;1261;1005356;-81
2024/02/19 06:40:16;;;;;;;60.00;27.30;;;;;;;-128.00;-1.00;-1.00;104973;1262;1004173;-79
2024/02/19 06:42:43;;;;;;;47.40;26.40;;;;;;;-128.00;-1.00;-1.00;105010;1262;1004680;-86
2024/02/19 06:45:10;;;;;;;51.70;26.90;;;;;;;-128.00;-1.00;-1.00;103357;1262;1004311;-79
2024/02/19 06:47:37;;;;;;;54.30;27.50;;;;;;;-128.00;-1.00;-1.00;102790;1261;1004126;-85
2024/02/19 06:50:04;;;;;;;53.10;26.50;;;;;;;-128.00;-1.00;-1.00;102507;1262;1003737;-85
2024/02/19 06:52:30;;;;;;;54.70;27.30;;;;;;;-128.00;-1.00;-1.00;102500;1262;1004725;-85
2024/02/19 06:54:57;;;;;;;48.80;28.00;;;;;;;-128.00;-1.00;-1.00;102464;1262;1005266;-85
2024/02/19 06:57:23;;;;;;;49.60;25.30;;;;;;;-128.00;-1.00;-1.00;102434;1262;1004610;-78
2024/02/19 06:59:50;;;;;;;49.40;26.60;;;;;;;-128.00;-1.00;-1.00;101857;1262;1003623;-87
2024/02/19 07:02:16;;;;;;;60.30;31.50;;;;;;;-128.00;-1.00;-1.00;102475;1262;1004949;-87
2024/02/19 07:04:45;;;;;;;47.90;26.30;;;;;;;-128.00;-1.00;-1.00;102578;1261;1004168;-81
2024/02/19 07:07:11;;;;;;;55.40;28.80;;;;;;;-128.00;-1.00;-1.00;102487;1262;1004678;-87
2024/02/19 07:09:40;;;;;;;58.60;29.00;;;;;;;-128.00;-1.00;-1.00;102464;1260;1004216;-87
2024/02/19 07:12:07;;;;;;;60.60;30.80;;;;;;;-128.00;-1.00;-1.00;102491;1262;1005747;-83
2024/02/19 07:14:33;;;;;;;52.60;28.60;;;;;;;-128.00;-1.00;-1.00;102359;1266;1003946;-87
2024/02/19 07:17:00;;;;;;;53.80;28.10;;;;;;;-128.00;-1.00;-1.00;102448;1260;1004649;-82
2024/02/19 07:19:26;;;;;;;50.80;30.90;;;;;;;-128.00;-1.00;-1.00;102527;1266;1005533;-87
2024/02/19 07:21:53;;;;;;;57.40;28.80;;;;;;;-128.00;-1.00;-1.00;102876;1260;1005161;-88
2024/02/19 07:24:19;;;;;;;58.80;28.30;;;;;;;-128.00;-1.00;-1.00;102785;1264;1004468;-82
2024/02/19 07:26:46;;;;;;;86.20;39.00;;;;;;;-128.00;-1.00;-1.00;102476;1260;1004632;-82
2024/02/19 07:29:12;;;;;;;132.60;62.10;;;;;;;-128.00;-1.00;-1.00;102557;1262;1004084;-87
2024/02/19 07:31:39;;;;;;;129.30;61.20;;;;;;;-128.00;-1.00;-1.00;102530;1264;1004358;-81
2024/02/19 07:34:07;;;;;;;102.70;52.50;;;;;;;-128.00;-1.00;-1.00;102580;1262;1004730;-82
2024/02/19 07:36:33;;;;;;;86.10;48.00;;;;;;;-128.00;-1.00;-1.00;102448;1260;1004737;-87
2024/02/19 07:39:00;;;;;;;103.30;51.40;;;;;;;-128.00;-1.00;-1.00;102498;1261;1004397;-82
2024/02/19 07:41:26;;;;;;;90.80;45.90;;;;;;;-128.00;-1.00;-1.00;102547;1260;1005802;-81
2024/02/19 07:43:52;;;;;;;88.80;46.50;;;;;;;-128.00;-1.00;-1.00;104917;1260;1004740;-85
2024/02/19 07:46:21;;;;;;;93.30;46.10;;;;;;;-128.00;-1.00;-1.00;103056;1262;1006097;-80
2024/02/19 07:48:48;;;;;;;90.70;50.50;;;;;;;-128.00;-1.00;-1.00;104814;1260;1063076;-80
2024/02/19 07:51:14;;;;;;;100.10;52.40;;;;;;;-128.00;-1.00;-1.00;105102;1260;1005166;-80
2024/02/19 07:53:42;;;;;;;93.40;48.90;;;;;;;-128.00;-1.00;-1.00;105005;1261;1005283;-79
2024/02/19 07:56:08;;;;;;;76.00;41.00;;;;;;;-128.00;-1.00;-1.00;105027;1260;1003915;-86
2024/02/19 07:58:35;;;;;;;70.50;38.50;;;;;;;-128.00;-1.00;-1.00;105053;1262;1004303;-86
2024/02/19 08:01:03;;;;;;;79.00;40.30;;;;;;;-128.00;-1.00;-1.00;105095;1260;1004960;-80
2024/02/19 08:03:30;;;;;;;83.50;43.90;;;;;;;-128.00;-1.00;-1.00;103193;1261;1004474;-85
2024/02/19 08:05:57;;;;;;;102.20;50.70;;;;;;;-128.00;-1.00;-1.00;102735;1264;1004832;-85
2024/02/19 08:08:24;;;;;;;93.90;48.90;;;;;;;-128.00;-1.00;-1.00;102526;1262;1004950;-85
2024/02/19 08:10:50;;;;;;;100.80;52.30;;;;;;;-128.00;-1.00;-1.00;102555;1262;1004644;-85
2024/02/19 08:13:17;;;;;;;96.50;55.20;;;;;;;-128.00;-1.00;-1.00;102599;1261;1006243;-85
2024/02/19 08:15:44;;;;;;;202.80;83.10;;;;;;;-128.00;-1.00;-1.00;102479;1262;1004574;-80
2024/02/19 08:18:10;;;;;;;157.30;76.20;;;;;;;-128.00;-1.00;-1.00;102264;1262;1005466;-80
2024/02/19 08:20:37;;;;;;;155.10;82.90;;;;;;;-128.00;-1.00;-1.00;102319;1262;1004720;-85
2024/02/19 08:23:04;;;;;;;105.30;60.10;;;;;;;-128.00;-1.00;-1.00;102503;1267;1004519;-86
2024/02/19 08:25:31;;;;;;;92.40;51.70;;;;;;;-128.00;-1.00;-1.00;102588;1262;1004367;-86
2024/02/19 08:27:58;;;;;;;90.20;51.60;;;;;;;-128.00;-1.00;-1.00;102793;1264;1003554;-85
2024/02/19 08:30:25;;;;;;;85.00;49.80;;;;;;;-128.00;-1.00;-1.00;102602;1263;1004130;-85
2024/02/19 08:32:51;;;;;;;97.10;51.20;;;;;;;-128.00;-1.00;-1.00;102645;1261;1004462;-85
2024/02/19 08:35:18;;;;;;;93.80;57.80;;;;;;;-128.00;-1.00;-1.00;102596;1263;1004939;-80
2024/02/19 08:37:44;;;;;;;79.30;47.50;;;;;;;-128.00;-1.00;-1.00;102562;1260;1004248;-85
2024/02/19 08:40:11;;;;;;;83.20;45.40;;;;;;;-128.00;-1.00;-1.00;102443;1262;1004889;-85
2024/02/19 08:42:37;;;;;;;70.10;43.50;;;;;;;-128.00;-1.00;-1.00;102520;1262;1004219;-80
2024/02/19 08:45:04;;;;;;;80.20;45.10;;;;;;;-128.00;-1.00;-1.00;102371;1270;1005274;-81
2024/02/19 08:47:31;;;;;;;92.10;58.80;;;;;;;-128.00;-1.00;-1.00;103432;1262;1004440;-81
2024/02/19 08:49:57;;;;;;;102.20;67.50;;;;;;;-128.00;-1.00;-1.00;103052;1262;1004700;-80
2024/02/19 08:52:24;;;;;;;103.00;63.90;;;;;;;-128.00;-1.00;-1.00;102400;1270;1004054;-80
2024/02/19 08:54:51;;;;;;;111.70;62.00;;;;;;;-128.00;-1.00;-1.00;102509;1262;1005396;-86
2024/02/19 08:57:17;;;;;;;152.60;84.20;;;;;;;-128.00;-1.00;-1.00;102523;1262;1003406;-85
2024/02/19 08:59:45;;;;;;;130.70;70.60;;;;;;;-128.00;-1.00;-1.00;102464;1262;1004330;-85
2024/02/19 09:02:15;;;;;;;294.80;127.90;;;;;;;-128.00;-1.00;-1.00;102582;1260;1004610;-80
2024/02/19 09:04:42;;;;;;;235.50;119.50;;;;;;;-128.00;-1.00;-1.00;102485;1260;1045598;-79
2024/02/19 09:07:09;;;;;;;219.90;104.50;;;;;;;-128.00;-1.00;-1.00;102146;1262;1004640;-84
2024/02/19 09:09:36;;;;;;;285.00;125.80;;;;;;;-128.00;-1.00;-1.00;102217;1262;1004939;-80
2024/02/19 09:12:04;;;;;;;371.50;166.10;;;;;;;-128.00;-1.00;-1.00;102179;1260;1004645;-85
2024/02/19 09:14:30;;;;;;;179.20;95.00;;;;;;;-128.00;-1.00;-1.00;102261;1263;1004325;-85
2024/02/19 09:16:57;;;;;;;384.20;174.20;;;;;;;-128.00;-1.00;-1.00;102281;1260;1003819;-79
2024/02/19 09:19:23;;;;;;;444.20;225.40;;;;;;;-128.00;-1.00;-1.00;102191;1262;1004342;-85
2024/02/19 09:21:50;;;;;;;359.20;186.20;;;;;;;-128.00;-1.00;-1.00;102251;1261;1004426;-85
2024/02/19 09:24:16;;;;;;;386.40;206.90;;;;;;;-128.00;-1.00;-1.00;102254;1268;1004205;-86
2024/02/19 09:26:43;;;;;;;157.70;87.00;;;;;;;-128.00;-1.00;-1.00;102402;1265;1003641;-79
2024/02/19 09:29:10;;;;;;;157.00;73.60;;;;;;;-128.00;-1.00;-1.00;102203;1262;1003991;-85
2024/02/19 09:31:36;;;;;;;177.80;85.80;;;;;;;-128.00;-1.00;-1.00;102308;1262;1004527;-85
2024/02/19 09:34:03;;;;;;;139.30;68.70;;;;;;;-128.00;-1.00;-1.00;102160;1262;1005523;-80
2024/02/19 09:36:30;;;;;;;135.60;68.10;;;;;;;-128.00;-1.00;-1.00;102414;1260;1003650;-79
2024/02/19 09:38:56;;;;;;;89.70;45.90;;;;;;;-128.00;-1.00;-1.00;102254;1262;1004277;-79
2024/02/19 09:41:23;;;;;;;63.90;31.70;;;;;;;-128.00;-1.00;-1.00;102149;1262;1004720;-85
2024/02/19 09:43:51;;;;;;;24.90;15.30;;;;;;;-128.00;-1.00;-1.00;101383;1262;1004044;-86
2024/02/19 09:46:19;;;;;;;18.30;10.60;;;;;;;-128.00;-1.00;-1.00;102081;1265;1004787;-85
2024/02/19 09:48:50;;;;;;;12.20;7.50;;;;;;;-128.00;-1.00;-1.00;102237;1260;1004956;-85
2024/02/19 09:51:21;;;;;;;122.40;72.10;;;;;;;-128.00;-1.00;-1.00;102056;1262;1059464;-80
2024/02/19 09:53:51;;;;;;;21.30;14.90;;;;;;;-128.00;-1.00;-1.00;102088;1261;1044910;-80
2024/02/19 09:56:19;;;;;;;;;;;;;;;-128.00;-1.00;-1.00;102156;1266;1046627;-85
2024/02/19 09:58:46;;;;;;;13.40;7.60;;;;;;;-128.00;-1.00;-1.00;102105;1262;1063099;-79
2024/02/19 10:01:12;;;;;;;9.90;5.30;;;;;;;-128.00;-1.00;-1.00;102144;1263;1004599;-80
2024/02/19 10:03:39;;;;;;;8.10;5.10;;;;;;;-128.00;-1.00;-1.00;102221;1262;1004834;-85
2024/02/19 10:06:06;;;;;;;8.20;5.60;;;;;;;-128.00;-1.00;-1.00;101917;1262;1005178;-80
2024/02/19 10:08:33;;;;;;;9.20;5.80;;;;;;;-128.00;-1.00;-1.00;102233;1260;1004200;-80
2024/02/19 10:11:06;;;;;;;74.40;36.60;;;;;;;-128.00;-1.00;-1.00;102159;1265;1004271;-81
2024/02/19 10:13:34;;;;;;;42.50;24.70;;;;;;;-128.00;-1.00;-1.00;102462;1265;1058131;-80
2024/02/19 10:16:00;;;;;;;19.00;10.40;;;;;;;-128.00;-1.00;-1.00;102391;1263;1004769;-86
2024/02/19 10:18:27;;;;;;;15.20;8.70;;;;;;;-128.00;-1.00;-1.00;102205;1262;1003474;-86
2024/02/19 10:20:53;;;;;;;38.50;23.20;;;;;;;-128.00;-1.00;-1.00;102136;1262;1005013;-81
2024/02/19 10:23:20;;;;;;;15.00;9.80;;;;;;;-128.00;-1.00;-1.00;102213;1261;1005259;-87
2024/02/19 10:25:47;;;;;;;74.20;41.40;;;;;;;-128.00;-1.00;-1.00;102067;1265;1004144;-81
2024/02/19 10:28:13;;;;;;;16.10;9.10;;;;;;;-128.00;-1.00;-1.00;102167;1262;1004466;-86
2024/02/19 10:30:40;;;;;;;20.80;11.20;;;;;;;-128.00;-1.00;-1.00;102162;1268;1005072;-86
2024/02/19 10:33:06;;;;;;;9.90;6.00;;;;;;;-128.00;-1.00;-1.00;102293;1260;1004336;-86
2024/02/19 10:35:33;;;;;;;9.30;5.50;;;;;;;-128.00;-1.00;-1.00;102233;1262;1003591;-86
2024/02/19 10:37:59;;;;;;;31.50;19.10;;;;;;;-128.00;-1.00;-1.00;102445;1262;1004625;-81
2024/02/19 10:40:27;;;;;;;13.10;7.20;;;;;;;-128.00;-1.00;-1.00;102243;1262;1004297;-85
2024/02/19 10:42:53;;;;;;;10.30;4.60;;;;;;;-128.00;-1.00;-1.00;102173;1263;1003620;-80
2024/02/19 10:45:21;;;;;;;7.00;4.30;;;;;;;-128.00;-1.00;-1.00;102391;1262;1003999;-86
2024/02/19 10:47:51;;;;;;;5.40;4.00;;;;;;;-128.00;-1.00;-1.00;102274;1261;1005311;-86
2024/02/19 10:50:18;;;;;;;9.00;4.40;;;;;;;-128.00;-1.00;-1.00;102178;1262;1059691;-86
2024/02/19 10:52:45;;;;;;;14.30;8.10;;;;;;;-128.00;-1.00;-1.00;102079;1263;1005007;-86
2024/02/19 10:55:12;;;;;;;25.80;13.90;;;;;;;-128.00;-1.00;-1.00;102148;1265;1004450;-86
2024/02/19 10:57:52;;;;;;;16.30;9.70;;;;;;;-128.00;-1.00;-1.00;102208;1262;1004693;-80